sensor_id;sensor_type;location;lat;lon;timestamp;temperature;humidity
44900;DHT22;30628;51.188;6.770;2022-08-03T00:00:43;25.80;96.30
44900;DHT22;30628;51.188;6.770;2022-08-03T00:03:10;25.80;96.40
44900;DHT22;30628;51.188;6.770;2022-08-03T00:05:36;25.70;96.20
44900;DHT22;30628;51.188;6.770;2022-08-03T00:08:02;25.80;96.20
44900;DHT22;30628;51.188;6.770;2022-08-03T00:10:28;25.80;96.30
44900;DHT22;30628;51.188;6.770;2022-08-03T00:12:55;25.80;96.40
44900;DHT22;30628;51.188;6.770;2022-08-03T00:15:21;25.70;96.10
44900;DHT22;30628;51.188;6.770;2022-08-03T00:17:47;25.60;96.80
44900;DHT22;30628;51.188;6.770;2022-08-03T00:20:13;25.60;96.50
44900;DHT22;30628;51.188;6.770;2022-08-03T00:22:39;25.60;96.80
44900;DHT22;30628;51.188;6.770;2022-08-03T00:25:06;25.60;96.40
44900;DHT22;30628;51.188;6.770;2022-08-03T00:27:32;25.60;96.10
44900;DHT22;30628;51.188;6.770;2022-08-03T00:29:59;25.60;96.40
44900;DHT22;30628;51.188;6.770;2022-08-03T00:32:25;25.50;97.00
44900;DHT22;30628;51.188;6.770;2022-08-03T00:34:51;25.40;97.90
44900;DHT22;30628;51.188;6.770;2022-08-03T00:37:17;25.40;97.60
44900;DHT22;30628;51.188;6.770;2022-08-03T00:39:43;25.40;97.00
44900;DHT22;30628;51.188;6.770;2022-08-03T00:42:12;25.40;96.60
44900;DHT22;30628;51.188;6.770;2022-08-03T00:44:42;25.40;96.60
44900;DHT22;30628;51.188;6.770;2022-08-03T00:47:09;25.40;96.60
44900;DHT22;30628;51.188;6.770;2022-08-03T00:49:36;25.30;97.80
44900;DHT22;30628;51.188;6.770;2022-08-03T00:52:04;25.30;96.70
44900;DHT22;30628;51.188;6.770;2022-08-03T00:54:31;25.30;97.30
44900;DHT22;30628;51.188;6.770;2022-08-03T00:56:58;25.20;97.20
44900;DHT22;30628;51.188;6.770;2022-08-03T00:59:24;25.20;96.80
44900;DHT22;30628;51.188;6.770;2022-08-03T01:01:50;25.30;96.60
44900;DHT22;30628;51.188;6.770;2022-08-03T01:04:18;25.20;97.20
44900;DHT22;30628;51.188;6.770;2022-08-03T01:07:23;25.30;96.80
44900;DHT22;30628;51.188;6.770;2022-08-03T01:20:35;25.20;97.00
44900;DHT22;30628;51.188;6.770;2022-08-03T01:31:27;25.10;96.60
44900;DHT22;30628;51.188;6.770;2022-08-03T01:34:00;25.10;96.50
44900;DHT22;30628;51.188;6.770;2022-08-03T01:36:37;25.00;96.90
44900;DHT22;30628;51.188;6.770;2022-08-03T01:39:05;25.00;96.60
44900;DHT22;30628;51.188;6.770;2022-08-03T01:41:47;25.00;96.50
44900;DHT22;30628;51.188;6.770;2022-08-03T01:44:14;25.00;96.40
44900;DHT22;30628;51.188;6.770;2022-08-03T01:46:42;25.00;96.40
44900;DHT22;30628;51.188;6.770;2022-08-03T01:49:10;25.00;96.50
44900;DHT22;30628;51.188;6.770;2022-08-03T01:51:38;25.00;96.50
44900;DHT22;30628;51.188;6.770;2022-08-03T01:54:08;24.90;96.80
44900;DHT22;30628;51.188;6.770;2022-08-03T01:56:35;24.90;96.70
44900;DHT22;30628;51.188;6.770;2022-08-03T01:59:03;24.90;97.00
44900;DHT22;30628;51.188;6.770;2022-08-03T02:01:31;24.90;96.60
44900;DHT22;30628;51.188;6.770;2022-08-03T02:03:59;24.80;96.60
44900;DHT22;30628;51.188;6.770;2022-08-03T02:06:26;24.80;96.80
44900;DHT22;30628;51.188;6.770;2022-08-03T02:08:54;24.80;96.60
44900;DHT22;30628;51.188;6.770;2022-08-03T02:11:22;24.80;96.70
44900;DHT22;30628;51.188;6.770;2022-08-03T02:13:50;24.80;96.80
44900;DHT22;30628;51.188;6.770;2022-08-03T02:16:17;24.80;96.60
44900;DHT22;30628;51.188;6.770;2022-08-03T02:18:44;24.80;96.50
44900;DHT22;30628;51.188;6.770;2022-08-03T02:21:12;24.80;96.50
44900;DHT22;30628;51.188;6.770;2022-08-03T02:23:39;24.80;96.60
44900;DHT22;30628;51.188;6.770;2022-08-03T02:26:11;24.70;96.80
44900;DHT22;30628;51.188;6.770;2022-08-03T02:28:42;24.70;96.50
44900;DHT22;30628;51.188;6.770;2022-08-03T02:31:14;24.70;96.50
44900;DHT22;30628;51.188;6.770;2022-08-03T02:33:49;24.60;96.60
44900;DHT22;30628;51.188;6.770;2022-08-03T02:36:21;24.60;96.50
44900;DHT22;30628;51.188;6.770;2022-08-03T02:38:52;24.60;96.40
44900;DHT22;30628;51.188;6.770;2022-08-03T02:41:23;24.70;96.50
44900;DHT22;30628;51.188;6.770;2022-08-03T02:43:53;24.70;96.30
44900;DHT22;30628;51.188;6.770;2022-08-03T02:46:23;24.60;96.30
44900;DHT22;30628;51.188;6.770;2022-08-03T02:48:51;24.60;96.40
44900;DHT22;30628;51.188;6.770;2022-08-03T02:51:20;24.50;96.70
44900;DHT22;30628;51.188;6.770;2022-08-03T02:53:47;24.60;96.50
44900;DHT22;30628;51.188;6.770;2022-08-03T02:56:14;24.50;96.50
44900;DHT22;30628;51.188;6.770;2022-08-03T02:58:42;24.50;96.50
44900;DHT22;30628;51.188;6.770;2022-08-03T03:01:10;24.60;96.70
44900;DHT22;30628;51.188;6.770;2022-08-03T03:03:37;24.50;96.40
44900;DHT22;30628;51.188;6.770;2022-08-03T03:06:06;24.50;96.80
44900;DHT22;30628;51.188;6.770;2022-08-03T03:08:33;24.50;96.50
44900;DHT22;30628;51.188;6.770;2022-08-03T03:11:00;24.50;96.60
44900;DHT22;30628;51.188;6.770;2022-08-03T03:13:29;24.40;97.00
44900;DHT22;30628;51.188;6.770;2022-08-03T03:15:58;24.40;97.30
44900;DHT22;30628;51.188;6.770;2022-08-03T03:18:28;24.40;96.90
44900;DHT22;30628;51.188;6.770;2022-08-03T03:20:55;24.40;96.80
44900;DHT22;30628;51.188;6.770;2022-08-03T03:23:24;24.40;96.80
44900;DHT22;30628;51.188;6.770;2022-08-03T03:25:51;24.30;96.80
44900;DHT22;30628;51.188;6.770;2022-08-03T03:28:18;24.30;96.80
44900;DHT22;30628;51.188;6.770;2022-08-03T03:30:44;24.30;96.80
44900;DHT22;30628;51.188;6.770;2022-08-03T03:33:11;24.30;96.90
44900;DHT22;30628;51.188;6.770;2022-08-03T03:35:39;24.30;96.70
44900;DHT22;30628;51.188;6.770;2022-08-03T03:38:06;24.30;97.20
44900;DHT22;30628;51.188;6.770;2022-08-03T03:40:34;24.30;97.10
44900;DHT22;30628;51.188;6.770;2022-08-03T03:43:01;24.20;97.40
44900;DHT22;30628;51.188;6.770;2022-08-03T03:45:29;24.20;97.00
44900;DHT22;30628;51.188;6.770;2022-08-03T03:47:55;24.20;97.20
44900;DHT22;30628;51.188;6.770;2022-08-03T03:50:23;24.10;97.40
44900;DHT22;30628;51.188;6.770;2022-08-03T03:52:49;24.10;97.80
44900;DHT22;30628;51.188;6.770;2022-08-03T03:55:17;24.10;97.30
44900;DHT22;30628;51.188;6.770;2022-08-03T03:57:43;24.10;97.80
44900;DHT22;30628;51.188;6.770;2022-08-03T04:00:12;24.10;99.40
44900;DHT22;30628;51.188;6.770;2022-08-03T04:02:38;24.00;98.70
44900;DHT22;30628;51.188;6.770;2022-08-03T04:05:05;24.00;97.90
44900;DHT22;30628;51.188;6.770;2022-08-03T04:08:04;24.10;97.50
44900;DHT22;30628;51.188;6.770;2022-08-03T04:13:39;24.10;97.20
44900;DHT22;30628;51.188;6.770;2022-08-03T04:16:09;24.10;97.30
44900;DHT22;30628;51.188;6.770;2022-08-03T04:18:38;24.10;97.60
44900;DHT22;30628;51.188;6.770;2022-08-03T04:21:08;24.10;97.80
44900;DHT22;30628;51.188;6.770;2022-08-03T04:23:38;24.10;97.30
44900;DHT22;30628;51.188;6.770;2022-08-03T04:26:08;24.00;97.40
44900;DHT22;30628;51.188;6.770;2022-08-03T04:28:35;23.90;98.00
44900;DHT22;30628;51.188;6.770;2022-08-03T04:31:05;23.90;98.80
44900;DHT22;30628;51.188;6.770;2022-08-03T04:33:36;23.90;98.70
44900;DHT22;30628;51.188;6.770;2022-08-03T04:36:06;23.90;97.90
44900;DHT22;30628;51.188;6.770;2022-08-03T04:38:45;24.00;97.60
44900;DHT22;30628;51.188;6.770;2022-08-03T04:41:16;24.00;97.50
44900;DHT22;30628;51.188;6.770;2022-08-03T04:43:43;24.00;97.50
44900;DHT22;30628;51.188;6.770;2022-08-03T04:46:10;24.00;97.90
44900;DHT22;30628;51.188;6.770;2022-08-03T04:48:37;24.00;97.70
44900;DHT22;30628;51.188;6.770;2022-08-03T04:51:04;24.00;99.20
44900;DHT22;30628;51.188;6.770;2022-08-03T04:53:31;23.90;98.40
44900;DHT22;30628;51.188;6.770;2022-08-03T04:56:06;23.80;98.40
44900;DHT22;30628;51.188;6.770;2022-08-03T04:58:32;23.80;98.50
44900;DHT22;30628;51.188;6.770;2022-08-03T05:00:58;23.70;99.20
44900;DHT22;30628;51.188;6.770;2022-08-03T05:03:25;23.70;99.90
44900;DHT22;30628;51.188;6.770;2022-08-03T05:05:52;23.60;99.90
44900;DHT22;30628;51.188;6.770;2022-08-03T05:08:18;23.70;99.30
44900;DHT22;30628;51.188;6.770;2022-08-03T05:10:45;23.70;98.80
44900;DHT22;30628;51.188;6.770;2022-08-03T05:13:12;23.60;99.90
44900;DHT22;30628;51.188;6.770;2022-08-03T05:15:39;23.60;98.50
44900;DHT22;30628;51.188;6.770;2022-08-03T05:18:06;23.70;98.80
44900;DHT22;30628;51.188;6.770;2022-08-03T05:20:32;23.80;99.60
44900;DHT22;30628;51.188;6.770;2022-08-03T05:22:59;23.80;99.80
44900;DHT22;30628;51.188;6.770;2022-08-03T05:25:27;23.80;99.20
44900;DHT22;30628;51.188;6.770;2022-08-03T05:27:53;23.80;99.60
44900;DHT22;30628;51.188;6.770;2022-08-03T05:30:19;23.80;99.90
44900;DHT22;30628;51.188;6.770;2022-08-03T05:32:45;23.80;99.30
44900;DHT22;30628;51.188;6.770;2022-08-03T05:35:12;23.90;99.40
44900;DHT22;30628;51.188;6.770;2022-08-03T05:37:38;24.00;98.90
44900;DHT22;30628;51.188;6.770;2022-08-03T05:40:04;24.10;97.60
44900;DHT22;30628;51.188;6.770;2022-08-03T05:42:31;24.20;98.00
44900;DHT22;30628;51.188;6.770;2022-08-03T05:44:57;24.20;99.30
44900;DHT22;30628;51.188;6.770;2022-08-03T05:47:23;24.10;98.10
44900;DHT22;30628;51.188;6.770;2022-08-03T05:49:49;24.30;99.00
44900;DHT22;30628;51.188;6.770;2022-08-03T05:52:15;24.30;99.40
44900;DHT22;30628;51.188;6.770;2022-08-03T05:54:41;24.30;99.90
44900;DHT22;30628;51.188;6.770;2022-08-03T05:57:09;24.40;98.00
44900;DHT22;30628;51.188;6.770;2022-08-03T05:59:37;24.50;97.00
44900;DHT22;30628;51.188;6.770;2022-08-03T06:02:04;24.60;98.90
44900;DHT22;30628;51.188;6.770;2022-08-03T06:04:30;24.60;97.30
44900;DHT22;30628;51.188;6.770;2022-08-03T06:06:56;24.80;96.70
44900;DHT22;30628;51.188;6.770;2022-08-03T06:09:22;24.80;97.20
44900;DHT22;30628;51.188;6.770;2022-08-03T06:11:48;24.90;96.40
44900;DHT22;30628;51.188;6.770;2022-08-03T06:14:14;25.00;97.10
44900;DHT22;30628;51.188;6.770;2022-08-03T06:16:41;25.10;98.50
44900;DHT22;30628;51.188;6.770;2022-08-03T06:19:07;25.20;96.30
44900;DHT22;30628;51.188;6.770;2022-08-03T06:21:33;25.40;95.90
44900;DHT22;30628;51.188;6.770;2022-08-03T06:23:59;25.40;97.00
44900;DHT22;30628;51.188;6.770;2022-08-03T06:26:26;25.50;96.70
44900;DHT22;30628;51.188;6.770;2022-08-03T06:28:53;25.70;95.10
44900;DHT22;30628;51.188;6.770;2022-08-03T06:31:24;25.70;96.90
44900;DHT22;30628;51.188;6.770;2022-08-03T06:33:51;25.90;97.20
44900;DHT22;30628;51.188;6.770;2022-08-03T06:36:17;25.90;96.90
44900;DHT22;30628;51.188;6.770;2022-08-03T06:38:43;26.00;98.20
44900;DHT22;30628;51.188;6.770;2022-08-03T06:41:09;26.10;95.50
44900;DHT22;30628;51.188;6.770;2022-08-03T06:43:35;26.10;95.20
44900;DHT22;30628;51.188;6.770;2022-08-03T06:46:03;26.10;95.20
44900;DHT22;30628;51.188;6.770;2022-08-03T06:48:30;26.20;96.80
44900;DHT22;30628;51.188;6.770;2022-08-03T06:50:56;26.30;96.30
44900;DHT22;30628;51.188;6.770;2022-08-03T06:53:22;26.40;96.90
44900;DHT22;30628;51.188;6.770;2022-08-03T06:55:49;26.50;95.70
44900;DHT22;30628;51.188;6.770;2022-08-03T06:58:15;26.60;95.10
44900;DHT22;30628;51.188;6.770;2022-08-03T07:00:41;26.60;95.20
44900;DHT22;30628;51.188;6.770;2022-08-03T07:03:07;26.70;94.80
44900;DHT22;30628;51.188;6.770;2022-08-03T07:05:33;26.80;96.10
44900;DHT22;30628;51.188;6.770;2022-08-03T07:08:00;26.90;96.50
44900;DHT22;30628;51.188;6.770;2022-08-03T07:10:28;27.00;96.40
44900;DHT22;30628;51.188;6.770;2022-08-03T07:12:54;27.10;96.70
44900;DHT22;30628;51.188;6.770;2022-08-03T07:15:20;27.10;95.00
44900;DHT22;30628;51.188;6.770;2022-08-03T07:17:49;27.20;95.90
44900;DHT22;30628;51.188;6.770;2022-08-03T07:20:16;27.30;94.50
44900;DHT22;30628;51.188;6.770;2022-08-03T07:22:43;27.40;94.70
44900;DHT22;30628;51.188;6.770;2022-08-03T07:25:10;27.60;95.00
44900;DHT22;30628;51.188;6.770;2022-08-03T07:27:36;27.50;95.60
44900;DHT22;30628;51.188;6.770;2022-08-03T07:30:05;27.70;96.20
44900;DHT22;30628;51.188;6.770;2022-08-03T07:32:32;27.70;94.80
44900;DHT22;30628;51.188;6.770;2022-08-03T07:34:58;27.70;94.40
44900;DHT22;30628;51.188;6.770;2022-08-03T07:37:24;27.60;95.80
44900;DHT22;30628;51.188;6.770;2022-08-03T07:39:50;27.60;94.90
44900;DHT22;30628;51.188;6.770;2022-08-03T07:42:16;27.60;94.90
44900;DHT22;30628;51.188;6.770;2022-08-03T07:44:42;27.50;95.00
44900;DHT22;30628;51.188;6.770;2022-08-03T07:47:09;27.40;95.70
44900;DHT22;30628;51.188;6.770;2022-08-03T07:49:39;27.40;95.60
44900;DHT22;30628;51.188;6.770;2022-08-03T07:52:05;27.60;96.00
44900;DHT22;30628;51.188;6.770;2022-08-03T07:54:50;27.70;95.80
44900;DHT22;30628;51.188;6.770;2022-08-03T07:57:17;27.70;95.40
44900;DHT22;30628;51.188;6.770;2022-08-03T07:59:45;27.80;95.40
44900;DHT22;30628;51.188;6.770;2022-08-03T08:02:11;28.00;95.10
44900;DHT22;30628;51.188;6.770;2022-08-03T08:04:38;28.00;94.80
44900;DHT22;30628;51.188;6.770;2022-08-03T08:07:04;28.10;95.00
44900;DHT22;30628;51.188;6.770;2022-08-03T08:09:30;28.00;95.00
44900;DHT22;30628;51.188;6.770;2022-08-03T08:11:56;28.10;94.40
44900;DHT22;30628;51.188;6.770;2022-08-03T08:14:23;28.20;94.60
44900;DHT22;30628;51.188;6.770;2022-08-03T08:16:49;28.30;93.90
44900;DHT22;30628;51.188;6.770;2022-08-03T08:19:15;28.30;94.30
44900;DHT22;30628;51.188;6.770;2022-08-03T08:21:44;28.40;94.50
44900;DHT22;30628;51.188;6.770;2022-08-03T08:24:14;28.50;94.10
44900;DHT22;30628;51.188;6.770;2022-08-03T08:26:40;28.60;93.80
44900;DHT22;30628;51.188;6.770;2022-08-03T08:29:06;28.70;94.40
44900;DHT22;30628;51.188;6.770;2022-08-03T08:31:32;28.80;93.90
44900;DHT22;30628;51.188;6.770;2022-08-03T08:33:59;28.80;94.00
44900;DHT22;30628;51.188;6.770;2022-08-03T08:36:34;29.00;93.80
44900;DHT22;30628;51.188;6.770;2022-08-03T08:39:01;29.10;93.50
44900;DHT22;30628;51.188;6.770;2022-08-03T08:41:27;29.20;93.40
44900;DHT22;30628;51.188;6.770;2022-08-03T08:43:54;29.30;93.30
44900;DHT22;30628;51.188;6.770;2022-08-03T08:46:20;29.40;93.40
44900;DHT22;30628;51.188;6.770;2022-08-03T08:48:50;29.50;93.10
44900;DHT22;30628;51.188;6.770;2022-08-03T08:51:18;29.50;93.00
44900;DHT22;30628;51.188;6.770;2022-08-03T08:53:49;29.70;93.00
44900;DHT22;30628;51.188;6.770;2022-08-03T08:56:16;29.70;92.80
44900;DHT22;30628;51.188;6.770;2022-08-03T08:58:59;29.90;92.70
44900;DHT22;30628;51.188;6.770;2022-08-03T09:01:25;29.90;92.70
44900;DHT22;30628;51.188;6.770;2022-08-03T09:03:52;30.10;92.60
44900;DHT22;30628;51.188;6.770;2022-08-03T09:06:20;30.20;92.30
44900;DHT22;30628;51.188;6.770;2022-08-03T09:08:46;30.50;92.30
44900;DHT22;30628;51.188;6.770;2022-08-03T09:11:12;30.70;92.60
44900;DHT22;30628;51.188;6.770;2022-08-03T09:13:39;30.80;92.10
44900;DHT22;30628;51.188;6.770;2022-08-03T09:18:36;31.00;91.80
44900;DHT22;30628;51.188;6.770;2022-08-03T09:23:53;31.20;91.30
44900;DHT22;30628;51.188;6.770;2022-08-03T09:31:36;31.50;91.20
44900;DHT22;30628;51.188;6.770;2022-08-03T09:34:08;31.60;91.30
44900;DHT22;30628;51.188;6.770;2022-08-03T09:36:36;31.80;90.90
44900;DHT22;30628;51.188;6.770;2022-08-03T09:39:17;31.80;90.50
44900;DHT22;30628;51.188;6.770;2022-08-03T09:41:45;32.00;90.30
44900;DHT22;30628;51.188;6.770;2022-08-03T09:44:12;32.10;90.40
44900;DHT22;30628;51.188;6.770;2022-08-03T09:46:54;32.20;89.00
44900;DHT22;30628;51.188;6.770;2022-08-03T09:49:23;32.30;89.80
44900;DHT22;30628;51.188;6.770;2022-08-03T09:51:50;32.30;89.50
44900;DHT22;30628;51.188;6.770;2022-08-03T09:54:27;32.30;88.80
44900;DHT22;30628;51.188;6.770;2022-08-03T09:56:54;32.60;89.30
44900;DHT22;30628;51.188;6.770;2022-08-03T09:59:25;32.60;88.60
44900;DHT22;30628;51.188;6.770;2022-08-03T10:01:52;32.70;88.40
44900;DHT22;30628;51.188;6.770;2022-08-03T10:04:19;32.90;88.10
44900;DHT22;30628;51.188;6.770;2022-08-03T10:07:07;32.90;87.80
44900;DHT22;30628;51.188;6.770;2022-08-03T10:09:37;32.90;86.50
44900;DHT22;30628;51.188;6.770;2022-08-03T10:12:11;32.70;85.90
44900;DHT22;30628;51.188;6.770;2022-08-03T10:14:38;32.90;87.30
44900;DHT22;30628;51.188;6.770;2022-08-03T10:17:05;33.00;88.10
44900;DHT22;30628;51.188;6.770;2022-08-03T10:19:32;32.90;86.30
44900;DHT22;30628;51.188;6.770;2022-08-03T10:22:16;33.00;86.60
44900;DHT22;30628;51.188;6.770;2022-08-03T10:27:28;33.20;89.00
44900;DHT22;30628;51.188;6.770;2022-08-03T10:29:59;33.10;86.50
44900;DHT22;30628;51.188;6.770;2022-08-03T10:32:51;33.20;85.10
44900;DHT22;30628;51.188;6.770;2022-08-03T10:35:19;33.20;85.80
44900;DHT22;30628;51.188;6.770;2022-08-03T10:37:54;33.40;85.20
44900;DHT22;30628;51.188;6.770;2022-08-03T10:40:22;33.40;85.30
44900;DHT22;30628;51.188;6.770;2022-08-03T10:42:52;33.50;86.00
44900;DHT22;30628;51.188;6.770;2022-08-03T10:45:22;33.30;84.20
44900;DHT22;30628;51.188;6.770;2022-08-03T10:47:51;33.30;86.90
44900;DHT22;30628;51.188;6.770;2022-08-03T10:50:18;33.50;85.80
44900;DHT22;30628;51.188;6.770;2022-08-03T10:53:03;33.70;85.20
44900;DHT22;30628;51.188;6.770;2022-08-03T10:55:52;33.70;85.10
44900;DHT22;30628;51.188;6.770;2022-08-03T11:01:04;33.70;85.60
44900;DHT22;30628;51.188;6.770;2022-08-03T11:03:30;33.60;84.30
44900;DHT22;30628;51.188;6.770;2022-08-03T11:06:18;33.60;83.20
44900;DHT22;30628;51.188;6.770;2022-08-03T11:08:46;33.50;84.30
44900;DHT22;30628;51.188;6.770;2022-08-03T11:16:25;33.50;82.40
44900;DHT22;30628;51.188;6.770;2022-08-03T11:19:00;33.60;85.20
44900;DHT22;30628;51.188;6.770;2022-08-03T11:35:29;33.40;81.90
44900;DHT22;30628;51.188;6.770;2022-08-03T11:40:48;33.30;82.60
44900;DHT22;30628;51.188;6.770;2022-08-03T11:48:22;33.50;82.80
44900;DHT22;30628;51.188;6.770;2022-08-03T11:50:50;33.50;80.60
44900;DHT22;30628;51.188;6.770;2022-08-03T11:53:17;33.60;81.00
44900;DHT22;30628;51.188;6.770;2022-08-03T11:55:45;33.70;81.20
44900;DHT22;30628;51.188;6.770;2022-08-03T11:58:18;33.60;81.10
44900;DHT22;30628;51.188;6.770;2022-08-03T12:00:45;33.60;80.20
44900;DHT22;30628;51.188;6.770;2022-08-03T12:03:13;33.60;82.90
44900;DHT22;30628;51.188;6.770;2022-08-03T12:08:15;33.60;81.80
44900;DHT22;30628;51.188;6.770;2022-08-03T12:10:47;33.60;86.80
44900;DHT22;30628;51.188;6.770;2022-08-03T12:13:13;33.60;84.20
44900;DHT22;30628;51.188;6.770;2022-08-03T12:15:41;33.60;80.80
44900;DHT22;30628;51.188;6.770;2022-08-03T12:18:15;33.50;80.70
44900;DHT22;30628;51.188;6.770;2022-08-03T12:20:42;33.40;83.40
44900;DHT22;30628;51.188;6.770;2022-08-03T12:23:10;33.20;80.80
44900;DHT22;30628;51.188;6.770;2022-08-03T12:25:38;33.30;85.50
44900;DHT22;30628;51.188;6.770;2022-08-03T12:28:15;33.30;80.80
44900;DHT22;30628;51.188;6.770;2022-08-03T12:30:46;33.30;82.10
44900;DHT22;30628;51.188;6.770;2022-08-03T12:35:46;33.20;80.10
44900;DHT22;30628;51.188;6.770;2022-08-03T12:38:19;33.10;80.90
44900;DHT22;30628;51.188;6.770;2022-08-03T12:40:55;33.10;81.50
44900;DHT22;30628;51.188;6.770;2022-08-03T12:43:21;33.10;86.30
44900;DHT22;30628;51.188;6.770;2022-08-03T12:45:47;33.30;86.70
44900;DHT22;30628;51.188;6.770;2022-08-03T12:48:13;33.30;82.50
44900;DHT22;30628;51.188;6.770;2022-08-03T12:50:39;33.20;82.20
44900;DHT22;30628;51.188;6.770;2022-08-03T12:53:08;33.20;85.70
44900;DHT22;30628;51.188;6.770;2022-08-03T12:55:38;33.30;84.60
44900;DHT22;30628;51.188;6.770;2022-08-03T12:58:06;33.30;81.20
44900;DHT22;30628;51.188;6.770;2022-08-03T13:00:35;33.40;88.60
44900;DHT22;30628;51.188;6.770;2022-08-03T13:03:07;33.40;82.70
44900;DHT22;30628;51.188;6.770;2022-08-03T13:05:42;33.40;81.20
44900;DHT22;30628;51.188;6.770;2022-08-03T13:08:22;33.40;81.50
44900;DHT22;30628;51.188;6.770;2022-08-03T13:10:49;33.40;81.30
44900;DHT22;30628;51.188;6.770;2022-08-03T13:13:15;33.50;87.90
44900;DHT22;30628;51.188;6.770;2022-08-03T13:15:42;33.50;82.90
44900;DHT22;30628;51.188;6.770;2022-08-03T13:18:08;33.50;83.40
44900;DHT22;30628;51.188;6.770;2022-08-03T13:20:35;33.60;86.50
44900;DHT22;30628;51.188;6.770;2022-08-03T13:23:01;33.50;80.30
44900;DHT22;30628;51.188;6.770;2022-08-03T13:25:27;33.50;80.30
44900;DHT22;30628;51.188;6.770;2022-08-03T13:27:53;33.40;80.10
44900;DHT22;30628;51.188;6.770;2022-08-03T13:30:20;33.50;81.80
44900;DHT22;30628;51.188;6.770;2022-08-03T13:32:46;33.50;85.70
44900;DHT22;30628;51.188;6.770;2022-08-03T13:35:12;33.70;85.80
44900;DHT22;30628;51.188;6.770;2022-08-03T13:37:39;33.80;81.90
44900;DHT22;30628;51.188;6.770;2022-08-03T13:40:06;33.80;85.70
44900;DHT22;30628;51.188;6.770;2022-08-03T13:42:34;33.90;84.70
44900;DHT22;30628;51.188;6.770;2022-08-03T13:45:01;33.80;79.70
44900;DHT22;30628;51.188;6.770;2022-08-03T13:47:28;33.80;78.50
44900;DHT22;30628;51.188;6.770;2022-08-03T13:49:54;33.80;82.30
44900;DHT22;30628;51.188;6.770;2022-08-03T13:52:20;33.90;79.40
44900;DHT22;30628;51.188;6.770;2022-08-03T13:54:47;33.90;83.30
44900;DHT22;30628;51.188;6.770;2022-08-03T13:57:13;33.90;80.30
44900;DHT22;30628;51.188;6.770;2022-08-03T13:59:39;33.90;78.90
44900;DHT22;30628;51.188;6.770;2022-08-03T14:02:05;33.80;78.00
44900;DHT22;30628;51.188;6.770;2022-08-03T14:04:31;33.90;81.20
44900;DHT22;30628;51.188;6.770;2022-08-03T14:06:57;33.90;79.50
44900;DHT22;30628;51.188;6.770;2022-08-03T14:09:24;34.00;81.10
44900;DHT22;30628;51.188;6.770;2022-08-03T14:11:50;34.00;78.50
44900;DHT22;30628;51.188;6.770;2022-08-03T14:14:16;33.90;79.00
44900;DHT22;30628;51.188;6.770;2022-08-03T14:16:42;33.90;79.20
44900;DHT22;30628;51.188;6.770;2022-08-03T14:19:09;33.80;78.20
44900;DHT22;30628;51.188;6.770;2022-08-03T14:21:35;33.90;81.90
44900;DHT22;30628;51.188;6.770;2022-08-03T14:24:01;33.90;85.00
44900;DHT22;30628;51.188;6.770;2022-08-03T14:26:27;34.00;85.00
44900;DHT22;30628;51.188;6.770;2022-08-03T14:28:55;34.00;81.20
44900;DHT22;30628;51.188;6.770;2022-08-03T14:31:21;34.10;84.00
44900;DHT22;30628;51.188;6.770;2022-08-03T14:33:48;34.10;81.30
44900;DHT22;30628;51.188;6.770;2022-08-03T14:36:15;34.10;83.70
44900;DHT22;30628;51.188;6.770;2022-08-03T14:38:42;34.10;84.20
44900;DHT22;30628;51.188;6.770;2022-08-03T14:41:08;34.20;86.10
44900;DHT22;30628;51.188;6.770;2022-08-03T14:43:34;34.10;83.30
44900;DHT22;30628;51.188;6.770;2022-08-03T14:46:00;34.20;78.10
44900;DHT22;30628;51.188;6.770;2022-08-03T14:48:26;34.10;77.00
44900;DHT22;30628;51.188;6.770;2022-08-03T14:50:52;34.00;83.00
44900;DHT22;30628;51.188;6.770;2022-08-03T14:53:20;34.10;85.20
44900;DHT22;30628;51.188;6.770;2022-08-03T14:55:49;33.90;77.50
44900;DHT22;30628;51.188;6.770;2022-08-03T14:58:15;34.10;84.00
44900;DHT22;30628;51.188;6.770;2022-08-03T15:00:42;34.10;79.20
44900;DHT22;30628;51.188;6.770;2022-08-03T15:03:08;34.20;82.20
44900;DHT22;30628;51.188;6.770;2022-08-03T15:05:34;34.20;80.70
44900;DHT22;30628;51.188;6.770;2022-08-03T15:08:00;34.10;75.40
44900;DHT22;30628;51.188;6.770;2022-08-03T15:10:26;34.10;78.70
44900;DHT22;30628;51.188;6.770;2022-08-03T15:12:52;34.20;84.80
44900;DHT22;30628;51.188;6.770;2022-08-03T15:15:20;34.30;85.70
44900;DHT22;30628;51.188;6.770;2022-08-03T15:17:46;34.30;81.70
44900;DHT22;30628;51.188;6.770;2022-08-03T15:20:12;34.30;82.40
44900;DHT22;30628;51.188;6.770;2022-08-03T15:22:39;34.20;84.40
44900;DHT22;30628;51.188;6.770;2022-08-03T15:25:06;34.10;77.70
44900;DHT22;30628;51.188;6.770;2022-08-03T15:27:32;34.00;78.90
44900;DHT22;30628;51.188;6.770;2022-08-03T15:29:58;34.00;75.30
44900;DHT22;30628;51.188;6.770;2022-08-03T15:32:24;33.90;75.40
44900;DHT22;30628;51.188;6.770;2022-08-03T15:34:51;34.00;78.30
44900;DHT22;30628;51.188;6.770;2022-08-03T15:37:18;34.10;85.00
44900;DHT22;30628;51.188;6.770;2022-08-03T15:39:45;34.10;83.20
44900;DHT22;30628;51.188;6.770;2022-08-03T15:42:11;34.10;82.00
44900;DHT22;30628;51.188;6.770;2022-08-03T15:44:37;34.20;82.70
44900;DHT22;30628;51.188;6.770;2022-08-03T15:47:04;34.30;86.00
44900;DHT22;30628;51.188;6.770;2022-08-03T15:49:30;34.10;84.00
44900;DHT22;30628;51.188;6.770;2022-08-03T15:51:56;34.10;76.00
44900;DHT22;30628;51.188;6.770;2022-08-03T15:54:22;34.10;74.70
44900;DHT22;30628;51.188;6.770;2022-08-03T15:56:49;34.00;75.50
44900;DHT22;30628;51.188;6.770;2022-08-03T15:59:18;34.10;77.00
44900;DHT22;30628;51.188;6.770;2022-08-03T16:01:46;34.10;85.00
44900;DHT22;30628;51.188;6.770;2022-08-03T16:04:12;34.10;78.70
44900;DHT22;30628;51.188;6.770;2022-08-03T16:06:38;34.00;84.90
44900;DHT22;30628;51.188;6.770;2022-08-03T16:09:05;34.00;73.80
44900;DHT22;30628;51.188;6.770;2022-08-03T16:11:32;33.90;75.80
44900;DHT22;30628;51.188;6.770;2022-08-03T16:14:00;33.80;73.80
44900;DHT22;30628;51.188;6.770;2022-08-03T16:16:26;33.70;75.60
44900;DHT22;30628;51.188;6.770;2022-08-03T16:18:52;33.80;83.20
44900;DHT22;30628;51.188;6.770;2022-08-03T16:21:19;33.80;82.60
44900;DHT22;30628;51.188;6.770;2022-08-03T16:23:45;33.70;80.20
44900;DHT22;30628;51.188;6.770;2022-08-03T16:26:11;33.80;83.50
44900;DHT22;30628;51.188;6.770;2022-08-03T16:28:37;33.70;76.10
44900;DHT22;30628;51.188;6.770;2022-08-03T16:31:04;33.60;77.20
44900;DHT22;30628;51.188;6.770;2022-08-03T16:33:31;33.70;80.60
44900;DHT22;30628;51.188;6.770;2022-08-03T16:35:58;33.60;75.60
44900;DHT22;30628;51.188;6.770;2022-08-03T16:38:24;33.40;81.00
44900;DHT22;30628;51.188;6.770;2022-08-03T16:40:50;33.50;75.30
44900;DHT22;30628;51.188;6.770;2022-08-03T16:43:17;33.50;77.60
44900;DHT22;30628;51.188;6.770;2022-08-03T16:45:46;33.30;80.90